Terminal Aerodrome Forecast
Issued by NWS Northern Indiana

Home | Current Version | Previous Version | Text Only | Print | Product List | Glossary Off
Versions: 1 2 3 4 5 6 7 8 9 10 11 12 13 14 15 16

952
FTUS43 KIWX 230903 AAA
TAFFWA
TAF AMD
KFWA 230903Z 2309/2406 00000KT P6SM BKN035
      TEMPO 2310/2312 5SM BR
     FM231500 24006KT P6SM VCTS BKN040CB
     FM231800 29008KT P6SM BKN050=

USA.gov is the U.S. government's official web portal to all federal, state and local government web resources and services.